sensor_id;sensor_type;location;lat;lon;timestamp;temperature;humidity
1329;DHT22;658;48.820;9.354;2023-02-01T00:01:25;21.90;37.10
1329;DHT22;658;48.820;9.354;2023-02-01T00:05:26;21.90;37.20
1329;DHT22;658;48.820;9.354;2023-02-01T00:09:26;21.90;37.20
1329;DHT22;658;48.820;9.354;2023-02-01T00:13:31;21.90;37.20
1329;DHT22;658;48.820;9.354;2023-02-01T00:17:32;21.90;37.10
1329;DHT22;658;48.820;9.354;2023-02-01T00:21:33;21.90;37.10
1329;DHT22;658;48.820;9.354;2023-02-01T00:25:34;21.90;37.10
1329;DHT22;658;48.820;9.354;2023-02-01T00:29:34;21.80;37.10
1329;DHT22;658;48.820;9.354;2023-02-01T00:33:35;21.80;37.10
1329;DHT22;658;48.820;9.354;2023-02-01T00:37:35;21.80;37.10
1329;DHT22;658;48.820;9.354;2023-02-01T00:41:36;21.80;37.50
1329;DHT22;658;48.820;9.354;2023-02-01T00:45:37;21.80;37.10
1329;DHT22;658;48.820;9.354;2023-02-01T00:49:37;21.80;37.10
1329;DHT22;658;48.820;9.354;2023-02-01T00:53:38;21.80;37.10
1329;DHT22;658;48.820;9.354;2023-02-01T00:57:39;21.80;37.00
1329;DHT22;658;48.820;9.354;2023-02-01T01:01:40;21.80;37.10
1329;DHT22;658;48.820;9.354;2023-02-01T01:05:40;21.80;37.00
1329;DHT22;658;48.820;9.354;2023-02-01T01:09:41;21.80;37.00
1329;DHT22;658;48.820;9.354;2023-02-01T01:13:42;21.80;37.00
1329;DHT22;658;48.820;9.354;2023-02-01T01:17:42;21.70;37.00
1329;DHT22;658;48.820;9.354;2023-02-01T01:21:43;21.70;37.00
1329;DHT22;658;48.820;9.354;2023-02-01T01:25:44;21.70;37.00
1329;DHT22;658;48.820;9.354;2023-02-01T01:29:44;21.70;37.00
1329;DHT22;658;48.820;9.354;2023-02-01T01:33:48;21.70;37.00
1329;DHT22;658;48.820;9.354;2023-02-01T01:37:48;21.70;37.00
1329;DHT22;658;48.820;9.354;2023-02-01T01:41:49;21.70;37.00
1329;DHT22;658;48.820;9.354;2023-02-01T01:45:50;21.70;37.10
1329;DHT22;658;48.820;9.354;2023-02-01T01:49:51;21.70;36.90
1329;DHT22;658;48.820;9.354;2023-02-01T01:54:02;21.70;36.90
1329;DHT22;658;48.820;9.354;2023-02-01T01:58:06;21.70;36.90
1329;DHT22;658;48.820;9.354;2023-02-01T02:02:09;21.70;37.00
1329;DHT22;658;48.820;9.354;2023-02-01T02:06:37;21.60;37.00
1329;DHT22;658;48.820;9.354;2023-02-01T02:10:39;21.60;36.90
1329;DHT22;658;48.820;9.354;2023-02-01T02:14:59;21.60;36.90
1329;DHT22;658;48.820;9.354;2023-02-01T02:49:11;21.60;37.10
1329;DHT22;658;48.820;9.354;2023-02-01T02:53:19;21.60;37.10
1329;DHT22;658;48.820;9.354;2023-02-01T02:57:42;21.60;37.10
1329;DHT22;658;48.820;9.354;2023-02-01T03:02:03;21.60;37.10
1329;DHT22;658;48.820;9.354;2023-02-01T03:06:23;21.60;37.10
1329;DHT22;658;48.820;9.354;2023-02-01T03:14:48;21.60;37.10
1329;DHT22;658;48.820;9.354;2023-02-01T03:22:55;21.60;37.10
1329;DHT22;658;48.820;9.354;2023-02-01T03:26:57;21.60;37.10
1329;DHT22;658;48.820;9.354;2023-02-01T03:30:59;21.60;37.10
1329;DHT22;658;48.820;9.354;2023-02-01T03:35:00;21.60;37.00
1329;DHT22;658;48.820;9.354;2023-02-01T03:39:29;21.60;37.00
1329;DHT22;658;48.820;9.354;2023-02-01T03:43:40;21.60;37.00
1329;DHT22;658;48.820;9.354;2023-02-01T03:47:45;21.60;37.00
1329;DHT22;658;48.820;9.354;2023-02-01T03:51:48;21.60;37.00
1329;DHT22;658;48.820;9.354;2023-02-01T03:55:51;21.60;37.00
1329;DHT22;658;48.820;9.354;2023-02-01T03:59:53;21.60;37.00
1329;DHT22;658;48.820;9.354;2023-02-01T04:03:53;21.60;37.00
1329;DHT22;658;48.820;9.354;2023-02-01T04:07:54;21.60;37.00
1329;DHT22;658;48.820;9.354;2023-02-01T04:11:55;21.60;37.00
1329;DHT22;658;48.820;9.354;2023-02-01T04:15:55;21.60;37.10
1329;DHT22;658;48.820;9.354;2023-02-01T04:19:56;21.60;37.00
1329;DHT22;658;48.820;9.354;2023-02-01T04:23:57;21.60;37.10
1329;DHT22;658;48.820;9.354;2023-02-01T04:27:58;21.60;37.10
1329;DHT22;658;48.820;9.354;2023-02-01T04:31:59;21.60;37.10
1329;DHT22;658;48.820;9.354;2023-02-01T04:36:00;21.60;37.10
1329;DHT22;658;48.820;9.354;2023-02-01T04:40:01;21.60;37.00
1329;DHT22;658;48.820;9.354;2023-02-01T04:44:04;21.60;37.00
1329;DHT22;658;48.820;9.354;2023-02-01T04:48:04;21.60;37.10
1329;DHT22;658;48.820;9.354;2023-02-01T04:52:05;21.60;37.10
1329;DHT22;658;48.820;9.354;2023-02-01T04:56:06;21.60;37.10
1329;DHT22;658;48.820;9.354;2023-02-01T05:00:08;21.60;37.10
1329;DHT22;658;48.820;9.354;2023-02-01T05:04:09;21.60;37.10
1329;DHT22;658;48.820;9.354;2023-02-01T05:08:10;21.60;37.00
1329;DHT22;658;48.820;9.354;2023-02-01T05:12:12;21.60;37.00
1329;DHT22;658;48.820;9.354;2023-02-01T05:16:31;21.60;37.10
1329;DHT22;658;48.820;9.354;2023-02-01T05:20:31;21.60;37.10
1329;DHT22;658;48.820;9.354;2023-02-01T05:24:32;21.60;37.10
1329;DHT22;658;48.820;9.354;2023-02-01T05:28:33;21.60;37.10
1329;DHT22;658;48.820;9.354;2023-02-01T05:32:33;21.60;37.10
1329;DHT22;658;48.820;9.354;2023-02-01T05:36:34;21.50;37.10
1329;DHT22;658;48.820;9.354;2023-02-01T05:40:35;21.60;37.10
1329;DHT22;658;48.820;9.354;2023-02-01T05:44:35;21.60;37.20
1329;DHT22;658;48.820;9.354;2023-02-01T05:48:36;21.50;37.40
1329;DHT22;658;48.820;9.354;2023-02-01T05:52:37;21.50;37.60
1329;DHT22;658;48.820;9.354;2023-02-01T05:56:37;21.50;37.50
1329;DHT22;658;48.820;9.354;2023-02-01T06:00:38;21.50;37.50
1329;DHT22;658;48.820;9.354;2023-02-01T06:04:39;21.60;37.60
1329;DHT22;658;48.820;9.354;2023-02-01T06:08:39;21.50;37.50
1329;DHT22;658;48.820;9.354;2023-02-01T06:12:40;21.50;37.50
1329;DHT22;658;48.820;9.354;2023-02-01T06:16:41;21.50;37.60
1329;DHT22;658;48.820;9.354;2023-02-01T06:20:41;21.50;37.80
1329;DHT22;658;48.820;9.354;2023-02-01T06:24:43;21.50;38.00
1329;DHT22;658;48.820;9.354;2023-02-01T06:28:43;21.50;37.90
1329;DHT22;658;48.820;9.354;2023-02-01T06:32:44;21.50;38.40
1329;DHT22;658;48.820;9.354;2023-02-01T06:36:45;21.50;38.40
1329;DHT22;658;48.820;9.354;2023-02-01T06:40:52;21.50;38.00
1329;DHT22;658;48.820;9.354;2023-02-01T06:44:53;21.50;37.70
1329;DHT22;658;48.820;9.354;2023-02-01T06:48:54;21.50;37.50
1329;DHT22;658;48.820;9.354;2023-02-01T06:52:55;21.50;37.60
1329;DHT22;658;48.820;9.354;2023-02-01T06:56:55;21.50;37.60
1329;DHT22;658;48.820;9.354;2023-02-01T07:00:56;21.50;37.40
1329;DHT22;658;48.820;9.354;2023-02-01T07:04:57;21.50;37.40
1329;DHT22;658;48.820;9.354;2023-02-01T07:08:57;21.50;37.30
1329;DHT22;658;48.820;9.354;2023-02-01T07:12:58;21.50;37.20
1329;DHT22;658;48.820;9.354;2023-02-01T07:16:59;21.50;37.10
1329;DHT22;658;48.820;9.354;2023-02-01T07:20:59;21.50;37.20
1329;DHT22;658;48.820;9.354;2023-02-01T07:25:00;21.40;37.10
1329;DHT22;658;48.820;9.354;2023-02-01T07:29:00;21.40;37.10
1329;DHT22;658;48.820;9.354;2023-02-01T07:33:01;21.40;37.70
1329;DHT22;658;48.820;9.354;2023-02-01T07:37:02;21.40;37.20
1329;DHT22;658;48.820;9.354;2023-02-01T07:41:05;21.40;37.50
1329;DHT22;658;48.820;9.354;2023-02-01T07:45:06;21.40;37.50
1329;DHT22;658;48.820;9.354;2023-02-01T07:49:07;21.40;37.50
1329;DHT22;658;48.820;9.354;2023-02-01T07:53:07;21.40;37.40
1329;DHT22;658;48.820;9.354;2023-02-01T07:57:08;21.30;37.30
1329;DHT22;658;48.820;9.354;2023-02-01T08:01:16;21.40;37.50
1329;DHT22;658;48.820;9.354;2023-02-01T08:05:20;21.30;37.40
1329;DHT22;658;48.820;9.354;2023-02-01T08:09:21;21.40;37.50
1329;DHT22;658;48.820;9.354;2023-02-01T08:13:21;21.30;37.60
1329;DHT22;658;48.820;9.354;2023-02-01T08:17:22;21.30;37.60
1329;DHT22;658;48.820;9.354;2023-02-01T08:21:25;21.30;37.50
1329;DHT22;658;48.820;9.354;2023-02-01T08:25:26;21.30;37.60
1329;DHT22;658;48.820;9.354;2023-02-01T08:29:28;21.30;37.60
1329;DHT22;658;48.820;9.354;2023-02-01T08:33:28;21.40;37.60
1329;DHT22;658;48.820;9.354;2023-02-01T08:37:29;21.40;38.10
1329;DHT22;658;48.820;9.354;2023-02-01T08:41:30;21.40;37.50
1329;DHT22;658;48.820;9.354;2023-02-01T08:45:30;21.40;37.50
1329;DHT22;658;48.820;9.354;2023-02-01T08:49:32;21.50;37.50
1329;DHT22;658;48.820;9.354;2023-02-01T08:53:33;21.50;37.50
1329;DHT22;658;48.820;9.354;2023-02-01T08:57:34;21.50;37.50
1329;DHT22;658;48.820;9.354;2023-02-01T09:01:34;21.40;37.50
1329;DHT22;658;48.820;9.354;2023-02-01T09:05:35;21.50;37.70
1329;DHT22;658;48.820;9.354;2023-02-01T09:09:36;21.50;37.70
1329;DHT22;658;48.820;9.354;2023-02-01T09:13:37;21.50;37.90
1329;DHT22;658;48.820;9.354;2023-02-01T09:17:38;21.40;38.10
1329;DHT22;658;48.820;9.354;2023-02-01T09:21:39;21.40;38.10
1329;DHT22;658;48.820;9.354;2023-02-01T09:25:40;21.40;38.20
1329;DHT22;658;48.820;9.354;2023-02-01T09:29:41;21.40;38.40
1329;DHT22;658;48.820;9.354;2023-02-01T09:33:42;21.40;38.40
1329;DHT22;658;48.820;9.354;2023-02-01T09:37:42;21.40;38.70
1329;DHT22;658;48.820;9.354;2023-02-01T09:42:17;21.40;38.70
1329;DHT22;658;48.820;9.354;2023-02-01T09:46:27;21.50;38.90
1329;DHT22;658;48.820;9.354;2023-02-01T09:50:34;21.50;38.80
1329;DHT22;658;48.820;9.354;2023-02-01T09:54:47;21.60;39.10
1329;DHT22;658;48.820;9.354;2023-02-01T09:59:18;21.60;39.00
1329;DHT22;658;48.820;9.354;2023-02-01T10:03:25;21.60;39.10
1329;DHT22;658;48.820;9.354;2023-02-01T10:08:01;21.60;39.50
1329;DHT22;658;48.820;9.354;2023-02-01T10:16:17;21.70;39.50
1329;DHT22;658;48.820;9.354;2023-02-01T10:28:41;21.90;43.10
1329;DHT22;658;48.820;9.354;2023-02-01T10:32:43;22.00;43.40
1329;DHT22;658;48.820;9.354;2023-02-01T10:37:17;22.10;44.00
1329;DHT22;658;48.820;9.354;2023-02-01T10:41:23;22.20;43.70
1329;DHT22;658;48.820;9.354;2023-02-01T10:45:28;22.20;44.10
1329;DHT22;658;48.820;9.354;2023-02-01T10:49:33;22.10;44.50
1329;DHT22;658;48.820;9.354;2023-02-01T10:58:04;21.90;45.50
1329;DHT22;658;48.820;9.354;2023-02-01T11:02:27;21.90;45.60
1329;DHT22;658;48.820;9.354;2023-02-01T11:06:33;21.90;46.00
1329;DHT22;658;48.820;9.354;2023-02-01T11:10:43;21.90;46.30
1329;DHT22;658;48.820;9.354;2023-02-01T11:14:43;21.90;46.40
1329;DHT22;658;48.820;9.354;2023-02-01T11:18:53;21.90;46.50
1329;DHT22;658;48.820;9.354;2023-02-01T11:22:56;21.90;47.10
1329;DHT22;658;48.820;9.354;2023-02-01T11:26:59;21.90;46.90
1329;DHT22;658;48.820;9.354;2023-02-01T11:31:03;21.90;47.20
1329;DHT22;658;48.820;9.354;2023-02-01T11:35:06;21.90;47.00
1329;DHT22;658;48.820;9.354;2023-02-01T11:39:16;21.90;47.20
1329;DHT22;658;48.820;9.354;2023-02-01T11:43:27;21.90;47.10
1329;DHT22;658;48.820;9.354;2023-02-01T11:47:39;22.00;47.20
1329;DHT22;658;48.820;9.354;2023-02-01T11:56:54;22.00;47.40
1329;DHT22;658;48.820;9.354;2023-02-01T12:23:17;22.00;47.40
1329;DHT22;658;48.820;9.354;2023-02-01T12:31:23;22.00;47.80
1329;DHT22;658;48.820;9.354;2023-02-01T12:35:51;21.90;47.80
1329;DHT22;658;48.820;9.354;2023-02-01T12:40:32;21.90;47.70
1329;DHT22;658;48.820;9.354;2023-02-01T12:44:53;21.90;47.70
1329;DHT22;658;48.820;9.354;2023-02-01T12:49:09;21.90;47.70
1329;DHT22;658;48.820;9.354;2023-02-01T12:53:44;21.90;47.90
1329;DHT22;658;48.820;9.354;2023-02-01T12:57:50;21.90;47.80
1329;DHT22;658;48.820;9.354;2023-02-01T13:02:00;21.90;48.30
1329;DHT22;658;48.820;9.354;2023-02-01T13:06:33;21.90;48.00
1329;DHT22;658;48.820;9.354;2023-02-01T13:10:46;21.90;48.00
1329;DHT22;658;48.820;9.354;2023-02-01T13:15:00;21.90;47.70
1329;DHT22;658;48.820;9.354;2023-02-01T13:19:23;21.90;47.90
1329;DHT22;658;48.820;9.354;2023-02-01T13:23:38;21.90;47.70
1329;DHT22;658;48.820;9.354;2023-02-01T13:27:40;21.90;47.80
1329;DHT22;658;48.820;9.354;2023-02-01T13:44:47;21.90;47.20
1329;DHT22;658;48.820;9.354;2023-02-01T13:49:00;21.90;47.30
1329;DHT22;658;48.820;9.354;2023-02-01T13:57:38;21.90;47.40
1329;DHT22;658;48.820;9.354;2023-02-01T14:01:40;21.90;47.00
1329;DHT22;658;48.820;9.354;2023-02-01T14:09:41;22.00;46.80
1329;DHT22;658;48.820;9.354;2023-02-01T14:13:42;21.90;46.90
1329;DHT22;658;48.820;9.354;2023-02-01T14:17:43;21.90;46.70
1329;DHT22;658;48.820;9.354;2023-02-01T14:21:49;22.00;46.00
1329;DHT22;658;48.820;9.354;2023-02-01T14:26:03;22.00;45.70
1329;DHT22;658;48.820;9.354;2023-02-01T14:30:07;22.00;45.20
1329;DHT22;658;48.820;9.354;2023-02-01T14:34:37;22.00;45.20
1329;DHT22;658;48.820;9.354;2023-02-01T14:38:49;21.90;44.90
1329;DHT22;658;48.820;9.354;2023-02-01T14:42:51;21.90;44.60
1329;DHT22;658;48.820;9.354;2023-02-01T14:47:27;21.90;44.30
1329;DHT22;658;48.820;9.354;2023-02-01T14:51:30;21.90;44.00
1329;DHT22;658;48.820;9.354;2023-02-01T14:59:41;21.90;43.60
1329;DHT22;658;48.820;9.354;2023-02-01T15:07:51;21.90;43.40
1329;DHT22;658;48.820;9.354;2023-02-01T15:12:18;21.90;43.10
1329;DHT22;658;48.820;9.354;2023-02-01T15:16:25;21.90;43.20
1329;DHT22;658;48.820;9.354;2023-02-01T15:20:28;21.80;43.20
1329;DHT22;658;48.820;9.354;2023-02-01T15:24:30;21.80;43.30
1329;DHT22;658;48.820;9.354;2023-02-01T15:28:31;21.80;43.30
1329;DHT22;658;48.820;9.354;2023-02-01T15:32:37;21.80;43.30
1329;DHT22;658;48.820;9.354;2023-02-01T15:36:40;21.80;43.10
1329;DHT22;658;48.820;9.354;2023-02-01T15:44:56;21.80;42.60
1329;DHT22;658;48.820;9.354;2023-02-01T15:48:57;21.80;42.80
1329;DHT22;658;48.820;9.354;2023-02-01T15:52:58;21.80;43.00
1329;DHT22;658;48.820;9.354;2023-02-01T15:57:01;21.80;42.70
1329;DHT22;658;48.820;9.354;2023-02-01T16:01:04;21.80;42.70
1329;DHT22;658;48.820;9.354;2023-02-01T16:10:01;21.80;42.40
1329;DHT22;658;48.820;9.354;2023-02-01T16:14:07;21.80;42.40
1329;DHT22;658;48.820;9.354;2023-02-01T16:18:09;21.80;42.30
1329;DHT22;658;48.820;9.354;2023-02-01T16:22:10;21.80;42.30
1329;DHT22;658;48.820;9.354;2023-02-01T16:26:10;21.80;42.10
1329;DHT22;658;48.820;9.354;2023-02-01T16:30:11;21.80;42.20
1329;DHT22;658;48.820;9.354;2023-02-01T16:34:14;21.80;42.10
1329;DHT22;658;48.820;9.354;2023-02-01T16:38:19;21.70;41.90
1329;DHT22;658;48.820;9.354;2023-02-01T16:42:22;21.80;42.00
1329;DHT22;658;48.820;9.354;2023-02-01T16:46:26;21.70;41.90
1329;DHT22;658;48.820;9.354;2023-02-01T16:50:32;21.70;41.70
1329;DHT22;658;48.820;9.354;2023-02-01T16:54:33;21.70;41.70
1329;DHT22;658;48.820;9.354;2023-02-01T16:58:34;21.70;41.70
1329;DHT22;658;48.820;9.354;2023-02-01T17:02:35;21.70;41.60
1329;DHT22;658;48.820;9.354;2023-02-01T17:06:36;21.70;41.50
1329;DHT22;658;48.820;9.354;2023-02-01T17:10:37;21.70;41.50
1329;DHT22;658;48.820;9.354;2023-02-01T17:14:39;21.70;41.40
1329;DHT22;658;48.820;9.354;2023-02-01T17:18:40;21.70;41.40
1329;DHT22;658;48.820;9.354;2023-02-01T17:22:41;21.70;41.40
1329;DHT22;658;48.820;9.354;2023-02-01T17:26:43;21.70;41.40
1329;DHT22;658;48.820;9.354;2023-02-01T17:30:44;21.60;41.30
1329;DHT22;658;48.820;9.354;2023-02-01T17:34:44;21.70;41.40
1329;DHT22;658;48.820;9.354;2023-02-01T17:38:45;21.70;41.30
1329;DHT22;658;48.820;9.354;2023-02-01T17:42:46;21.70;41.20
1329;DHT22;658;48.820;9.354;2023-02-01T17:46:46;21.70;41.20
1329;DHT22;658;48.820;9.354;2023-02-01T17:50:48;21.70;41.20
1329;DHT22;658;48.820;9.354;2023-02-01T17:54:52;21.70;41.20
1329;DHT22;658;48.820;9.354;2023-02-01T17:58:53;21.70;41.10
1329;DHT22;658;48.820;9.354;2023-02-01T18:02:55;21.60;41.00
1329;DHT22;658;48.820;9.354;2023-02-01T18:06:56;21.70;41.00
1329;DHT22;658;48.820;9.354;2023-02-01T18:10:59;21.70;41.00
1329;DHT22;658;48.820;9.354;2023-02-01T18:15:00;21.70;41.00
1329;DHT22;658;48.820;9.354;2023-02-01T18:19:01;21.70;41.00
1329;DHT22;658;48.820;9.354;2023-02-01T18:23:04;21.70;40.80
1329;DHT22;658;48.820;9.354;2023-02-01T18:27:06;21.70;40.80
1329;DHT22;658;48.820;9.354;2023-02-01T18:31:10;21.70;40.80
1329;DHT22;658;48.820;9.354;2023-02-01T18:35:26;21.70;40.80
1329;DHT22;658;48.820;9.354;2023-02-01T18:39:26;21.70;40.70
1329;DHT22;658;48.820;9.354;2023-02-01T18:43:27;21.70;40.70
1329;DHT22;658;48.820;9.354;2023-02-01T18:47:28;21.70;40.60
1329;DHT22;658;48.820;9.354;2023-02-01T18:51:28;21.70;40.60
1329;DHT22;658;48.820;9.354;2023-02-01T18:55:29;21.70;40.60
1329;DHT22;658;48.820;9.354;2023-02-01T18:59:31;21.70;40.60
1329;DHT22;658;48.820;9.354;2023-02-01T19:03:32;21.60;40.50
1329;DHT22;658;48.820;9.354;2023-02-01T19:07:34;21.70;40.50
1329;DHT22;658;48.820;9.354;2023-02-01T19:11:35;21.60;40.40
1329;DHT22;658;48.820;9.354;2023-02-01T19:15:35;21.60;40.40
1329;DHT22;658;48.820;9.354;2023-02-01T19:19:39;21.60;40.90
1329;DHT22;658;48.820;9.354;2023-02-01T19:23:41;21.60;40.30
1329;DHT22;658;48.820;9.354;2023-02-01T19:27:42;21.70;40.40
1329;DHT22;658;48.820;9.354;2023-02-01T19:31:43;21.60;40.30
1329;DHT22;658;48.820;9.354;2023-02-01T19:35:46;21.60;40.30
1329;DHT22;658;48.820;9.354;2023-02-01T19:39:47;21.60;40.20
1329;DHT22;658;48.820;9.354;2023-02-01T19:43:47;21.60;40.20
1329;DHT22;658;48.820;9.354;2023-02-01T19:47:48;21.70;40.30
1329;DHT22;658;48.820;9.354;2023-02-01T19:51:49;21.60;40.20
1329;DHT22;658;48.820;9.354;2023-02-01T19:55:49;21.60;40.20
1329;DHT22;658;48.820;9.354;2023-02-01T19:59:50;21.60;40.20
1329;DHT22;658;48.820;9.354;2023-02-01T20:03:51;21.60;40.20
1329;DHT22;658;48.820;9.354;2023-02-01T20:07:52;21.60;40.20
1329;DHT22;658;48.820;9.354;2023-02-01T20:11:53;21.60;40.20
1329;DHT22;658;48.820;9.354;2023-02-01T20:15:58;21.60;40.20
1329;DHT22;658;48.820;9.354;2023-02-01T20:19:59;21.60;40.20
1329;DHT22;658;48.820;9.354;2023-02-01T20:24:00;21.60;40.20
1329;DHT22;658;48.820;9.354;2023-02-01T20:28:01;21.50;38.20
1329;DHT22;658;48.820;9.354;2023-02-01T20:32:01;21.40;39.30
1329;DHT22;658;48.820;9.354;2023-02-01T20:36:03;21.40;39.50
1329;DHT22;658;48.820;9.354;2023-02-01T20:40:04;21.40;39.60
1329;DHT22;658;48.820;9.354;2023-02-01T20:44:05;21.50;39.70
1329;DHT22;658;48.820;9.354;2023-02-01T20:48:06;21.50;39.70
1329;DHT22;658;48.820;9.354;2023-02-01T20:52:07;21.50;39.70
1329;DHT22;658;48.820;9.354;2023-02-01T20:56:12;21.50;39.70
1329;DHT22;658;48.820;9.354;2023-02-01T21:00:20;21.50;39.80
1329;DHT22;658;48.820;9.354;2023-02-01T21:04:24;21.50;39.70
1329;DHT22;658;48.820;9.354;2023-02-01T21:08:28;21.50;39.80
1329;DHT22;658;48.820;9.354;2023-02-01T21:12:29;21.50;39.70
1329;DHT22;658;48.820;9.354;2023-02-01T21:16:30;21.50;39.70
1329;DHT22;658;48.820;9.354;2023-02-01T21:20:32;21.50;39.70
1329;DHT22;658;48.820;9.354;2023-02-01T21:24:32;21.50;39.70
1329;DHT22;658;48.820;9.354;2023-02-01T21:28:33;21.50;39.70
1329;DHT22;658;48.820;9.354;2023-02-01T21:32:34;21.50;39.70
1329;DHT22;658;48.820;9.354;2023-02-01T21:36:34;21.50;39.70
1329;DHT22;658;48.820;9.354;2023-02-01T21:40:35;21.50;39.60
1329;DHT22;658;48.820;9.354;2023-02-01T21:44:36;21.50;39.60
1329;DHT22;658;48.820;9.354;2023-02-01T21:48:37;21.50;39.60
1329;DHT22;658;48.820;9.354;2023-02-01T21:52:40;21.50;39.50
1329;DHT22;658;48.820;9.354;2023-02-01T21:56:41;21.50;39.50
1329;DHT22;658;48.820;9.354;2023-02-01T22:00:42;21.60;39.60
1329;DHT22;658;48.820;9.354;2023-02-01T22:04:45;21.60;39.70
1329;DHT22;658;48.820;9.354;2023-02-01T22:08:45;21.60;39.80
1329;DHT22;658;48.820;9.354;2023-02-01T22:12:46;21.60;39.80
1329;DHT22;658;48.820;9.354;2023-02-01T22:16:47;21.60;39.90
1329;DHT22;658;48.820;9.354;2023-02-01T22:20:48;21.70;39.90
1329;DHT22;658;48.820;9.354;2023-02-01T22:24:48;21.60;40.00
1329;DHT22;658;48.820;9.354;2023-02-01T22:28:49;21.60;39.80
1329;DHT22;658;48.820;9.354;2023-02-01T22:32:50;21.60;39.80
1329;DHT22;658;48.820;9.354;2023-02-01T22:36:50;21.60;39.80
1329;DHT22;658;48.820;9.354;2023-02-01T22:40:54;21.60;39.70
1329;DHT22;658;48.820;9.354;2023-02-01T22:44:55;21.70;39.80
1329;DHT22;658;48.820;9.354;2023-02-01T22:48:56;21.60;39.80
1329;DHT22;658;48.820;9.354;2023-02-01T22:52:58;21.60;39.80
1329;DHT22;658;48.820;9.354;2023-02-01T22:56:59;21.60;39.80
1329;DHT22;658;48.820;9.354;2023-02-01T23:01:10;21.70;39.90
1329;DHT22;658;48.820;9.354;2023-02-01T23:05:11;21.60;39.80
1329;DHT22;658;48.820;9.354;2023-02-01T23:09:23;21.60;39.80
1329;DHT22;658;48.820;9.354;2023-02-01T23:13:27;21.60;39.80
1329;DHT22;658;48.820;9.354;2023-02-01T23:17:27;21.60;39.80
1329;DHT22;658;48.820;9.354;2023-02-01T23:21:28;21.60;39.80
1329;DHT22;658;48.820;9.354;2023-02-01T23:25:28;21.60;39.80
1329;DHT22;658;48.820;9.354;2023-02-01T23:29:29;21.60;39.80
1329;DHT22;658;48.820;9.354;2023-02-01T23:33:30;21.60;39.80
1329;DHT22;658;48.820;9.354;2023-02-01T23:37:30;21.60;40.30
1329;DHT22;658;48.820;9.354;2023-02-01T23:41:31;21.60;39.80
1329;DHT22;658;48.820;9.354;2023-02-01T23:45:32;21.60;39.70
1329;DHT22;658;48.820;9.354;2023-02-01T23:49:32;21.60;39.80
1329;DHT22;658;48.820;9.354;2023-02-01T23:53:33;21.60;39.70
1329;DHT22;658;48.820;9.354;2023-02-01T23:57:33;21.60;39.60
